sensor_id;sensor_type;location;lat;lon;timestamp;temperature;humidity
70548;DHT22;58099;43.406;3.698;2022-07-17T00:00:20;26.60;93.50
70548;DHT22;58099;43.406;3.698;2022-07-17T00:02:46;26.50;93.00
70548;DHT22;58099;43.406;3.698;2022-07-17T00:05:14;26.50;93.10
70548;DHT22;58099;43.406;3.698;2022-07-17T00:07:40;26.50;93.20
70548;DHT22;58099;43.406;3.698;2022-07-17T00:10:06;26.50;93.00
70548;DHT22;58099;43.406;3.698;2022-07-17T00:12:31;26.50;92.80
70548;DHT22;58099;43.406;3.698;2022-07-17T00:14:57;26.50;93.00
70548;DHT22;58099;43.406;3.698;2022-07-17T00:17:23;26.40;92.70
70548;DHT22;58099;43.406;3.698;2022-07-17T00:19:49;26.40;92.40
70548;DHT22;58099;43.406;3.698;2022-07-17T00:22:15;26.40;92.70
70548;DHT22;58099;43.406;3.698;2022-07-17T00:24:40;26.40;92.30
70548;DHT22;58099;43.406;3.698;2022-07-17T00:27:06;26.40;92.60
70548;DHT22;58099;43.406;3.698;2022-07-17T00:29:32;26.30;92.20
70548;DHT22;58099;43.406;3.698;2022-07-17T00:31:57;26.30;92.30
70548;DHT22;58099;43.406;3.698;2022-07-17T00:34:23;26.30;92.40
70548;DHT22;58099;43.406;3.698;2022-07-17T00:36:49;26.40;92.10
70548;DHT22;58099;43.406;3.698;2022-07-17T00:39:15;26.30;92.00
70548;DHT22;58099;43.406;3.698;2022-07-17T00:41:43;26.40;92.50
70548;DHT22;58099;43.406;3.698;2022-07-17T00:44:10;26.30;92.00
70548;DHT22;58099;43.406;3.698;2022-07-17T00:46:37;26.30;92.30
70548;DHT22;58099;43.406;3.698;2022-07-17T00:49:05;26.30;92.20
70548;DHT22;58099;43.406;3.698;2022-07-17T00:51:32;26.20;92.10
70548;DHT22;58099;43.406;3.698;2022-07-17T00:53:59;26.20;92.30
70548;DHT22;58099;43.406;3.698;2022-07-17T00:56:27;26.20;92.40
70548;DHT22;58099;43.406;3.698;2022-07-17T00:58:53;26.20;92.50
70548;DHT22;58099;43.406;3.698;2022-07-17T01:01:19;26.20;92.50
70548;DHT22;58099;43.406;3.698;2022-07-17T01:03:45;26.30;92.50
70548;DHT22;58099;43.406;3.698;2022-07-17T01:06:12;26.30;92.30
70548;DHT22;58099;43.406;3.698;2022-07-17T01:08:37;26.30;92.10
70548;DHT22;58099;43.406;3.698;2022-07-17T01:11:03;26.30;91.90
70548;DHT22;58099;43.406;3.698;2022-07-17T01:13:30;26.20;91.90
70548;DHT22;58099;43.406;3.698;2022-07-17T01:15:56;26.20;91.60
70548;DHT22;58099;43.406;3.698;2022-07-17T01:18:23;26.20;91.40
70548;DHT22;58099;43.406;3.698;2022-07-17T01:20:49;26.20;90.10
70548;DHT22;58099;43.406;3.698;2022-07-17T01:23:17;26.20;88.90
70548;DHT22;58099;43.406;3.698;2022-07-17T01:25:44;26.20;89.50
70548;DHT22;58099;43.406;3.698;2022-07-17T01:28:10;26.20;88.00
70548;DHT22;58099;43.406;3.698;2022-07-17T01:30:35;26.20;87.10
70548;DHT22;58099;43.406;3.698;2022-07-17T01:33:02;26.10;86.50
70548;DHT22;58099;43.406;3.698;2022-07-17T01:35:28;26.10;84.70
70548;DHT22;58099;43.406;3.698;2022-07-17T01:37:53;26.10;84.00
70548;DHT22;58099;43.406;3.698;2022-07-17T01:40:19;26.10;84.80
70548;DHT22;58099;43.406;3.698;2022-07-17T01:42:49;26.10;82.00
70548;DHT22;58099;43.406;3.698;2022-07-17T01:45:17;26.10;80.70
70548;DHT22;58099;43.406;3.698;2022-07-17T01:47:43;26.10;82.40
70548;DHT22;58099;43.406;3.698;2022-07-17T01:50:11;26.10;83.10
70548;DHT22;58099;43.406;3.698;2022-07-17T01:52:38;26.10;83.80
70548;DHT22;58099;43.406;3.698;2022-07-17T01:55:06;26.10;83.40
70548;DHT22;58099;43.406;3.698;2022-07-17T01:57:32;26.10;83.00
70548;DHT22;58099;43.406;3.698;2022-07-17T01:59:57;26.10;83.70
70548;DHT22;58099;43.406;3.698;2022-07-17T02:02:23;26.10;81.30
70548;DHT22;58099;43.406;3.698;2022-07-17T02:04:49;26.00;81.50
70548;DHT22;58099;43.406;3.698;2022-07-17T02:07:14;26.10;83.50
70548;DHT22;58099;43.406;3.698;2022-07-17T02:09:40;26.00;83.50
70548;DHT22;58099;43.406;3.698;2022-07-17T02:12:06;26.00;84.20
70548;DHT22;58099;43.406;3.698;2022-07-17T02:14:34;25.90;83.20
70548;DHT22;58099;43.406;3.698;2022-07-17T02:17:01;25.90;82.70
70548;DHT22;58099;43.406;3.698;2022-07-17T02:19:27;25.90;83.10
70548;DHT22;58099;43.406;3.698;2022-07-17T02:21:52;25.90;85.50
70548;DHT22;58099;43.406;3.698;2022-07-17T02:24:19;25.90;89.00
70548;DHT22;58099;43.406;3.698;2022-07-17T02:26:44;25.90;89.50
70548;DHT22;58099;43.406;3.698;2022-07-17T02:29:10;26.20;93.60
70548;DHT22;58099;43.406;3.698;2022-07-17T02:31:36;26.80;92.30
70548;DHT22;58099;43.406;3.698;2022-07-17T02:34:02;27.10;92.00
70548;DHT22;58099;43.406;3.698;2022-07-17T02:36:27;27.30;91.50
70548;DHT22;58099;43.406;3.698;2022-07-17T02:38:53;27.30;87.90
70548;DHT22;58099;43.406;3.698;2022-07-17T02:41:19;27.30;86.30
70548;DHT22;58099;43.406;3.698;2022-07-17T02:43:45;27.30;86.30
70548;DHT22;58099;43.406;3.698;2022-07-17T02:46:10;27.20;90.00
70548;DHT22;58099;43.406;3.698;2022-07-17T02:48:36;27.50;90.20
70548;DHT22;58099;43.406;3.698;2022-07-17T02:51:02;27.50;88.80
70548;DHT22;58099;43.406;3.698;2022-07-17T02:53:28;27.50;88.30
70548;DHT22;58099;43.406;3.698;2022-07-17T02:55:53;27.60;87.00
70548;DHT22;58099;43.406;3.698;2022-07-17T02:58:19;27.70;87.60
70548;DHT22;58099;43.406;3.698;2022-07-17T03:00:45;27.80;87.80
70548;DHT22;58099;43.406;3.698;2022-07-17T03:03:10;27.60;82.90
70548;DHT22;58099;43.406;3.698;2022-07-17T03:05:36;27.80;88.30
70548;DHT22;58099;43.406;3.698;2022-07-17T03:08:02;27.80;83.40
